createdAt,value
2023-01-11T00:03:30.213Z,67.64
2023-01-11T00:08:33.233Z,67.52
2023-01-11T00:13:36.136Z,67.31
2023-01-11T00:18:41.143Z,67.23
2023-01-11T00:23:44.201Z,67.06
2023-01-11T00:28:50.702Z,66.84
2023-01-11T00:33:53.592Z,66.80
2023-01-11T00:38:56.593Z,67.18
2023-01-11T00:44:18.755Z,67.05
2023-01-11T00:49:22.325Z,67.01
2023-01-11T00:54:25.279Z,66.98
2023-01-11T00:59:28.393Z,66.90
2023-01-11T01:04:32.133Z,67.16
2023-01-11T01:09:35.223Z,67.32
2023-01-11T01:14:38.438Z,67.01
2023-01-11T01:19:41.546Z,66.31
2023-01-11T01:24:44.648Z,66.64
2023-01-11T01:29:47.561Z,66.28
2023-01-11T01:34:50.523Z,66.26
2023-01-11T01:39:53.563Z,66.33
2023-01-11T01:44:59.432Z,65.98
2023-01-11T01:50:12.909Z,66.22
2023-01-11T01:55:27.361Z,66.42
2023-01-11T02:00:31.264Z,65.73
2023-01-11T02:05:34.867Z,66.29
2023-01-11T02:10:38.351Z,66.84
2023-01-11T02:15:41.745Z,67.10
2023-01-11T02:21:03.083Z,67.22
2023-01-11T02:26:24.625Z,67.32
2023-01-11T02:31:41.963Z,67.44
2023-01-11T02:37:03.201Z,67.75
2023-01-11T02:42:45.139Z,67.77
2023-01-11T02:48:00.138Z,67.83
2023-01-11T02:53:32.506Z,67.81
2023-01-11T02:58:39.043Z,67.73
2023-01-11T03:03:41.993Z,67.59
2023-01-11T03:09:29.551Z,67.87
2023-01-11T03:14:50.590Z,68.25
2023-01-11T03:20:01.772Z,68.33
2023-01-11T03:25:21.272Z,68.23
2023-01-11T03:30:35.538Z,68.23
2023-01-11T03:35:58.717Z,68.27
2023-01-11T03:41:07.877Z,68.01
2023-01-11T03:46:16.200Z,68.08
2023-01-11T03:51:25.085Z,68.27
2023-01-11T03:56:52.185Z,68.51
2023-01-11T04:01:56.454Z,68.29
2023-01-11T04:06:59.374Z,68.22
2023-01-11T04:12:02.380Z,69.36
2023-01-11T04:17:05.483Z,69.46
2023-01-11T04:22:08.450Z,69.42
2023-01-11T04:27:11.385Z,69.99
2023-01-11T04:32:14.397Z,70.38
2023-01-11T04:37:17.499Z,70.11
2023-01-11T04:42:20.709Z,70.46
2023-01-11T04:47:24.848Z,70.35
2023-01-11T04:52:27.945Z,70.10
2023-01-11T04:57:30.957Z,69.83
2023-01-11T05:02:34.163Z,70.03
2023-01-11T05:07:39.001Z,69.92
2023-01-11T05:12:41.919Z,70.23
2023-01-11T05:17:44.827Z,70.41
2023-01-11T05:22:48.445Z,70.13
2023-01-11T05:27:51.453Z,69.61
2023-01-11T05:32:55.380Z,69.34
2023-01-11T05:37:58.283Z,68.67
2023-01-11T05:43:01.401Z,69.18
2023-01-11T05:48:05.125Z,70.16
2023-01-11T05:53:08.226Z,70.62
2023-01-11T05:58:11.329Z,70.69
2023-01-11T06:03:14.509Z,70.73
2023-01-11T06:08:17.551Z,70.95
2023-01-11T06:13:27.731Z,71.29
2023-01-11T06:18:34.100Z,72.24
2023-01-11T06:23:39.468Z,72.28
2023-01-11T06:28:42.996Z,72.34
2023-01-11T06:33:47.343Z,72.28
2023-01-11T06:38:50.354Z,71.97
2023-01-11T06:43:53.338Z,71.16
2023-01-11T06:48:56.244Z,70.86
2023-01-11T06:53:59.371Z,71.19
2023-01-11T06:59:02.448Z,70.92
2023-01-11T07:04:05.680Z,70.29
2023-01-11T07:09:08.787Z,70.00
2023-01-11T07:14:15.273Z,70.56
2023-01-11T07:19:18.581Z,69.61
2023-01-11T07:24:23.036Z,70.63
2023-01-11T07:29:26.032Z,71.67
2023-01-11T07:34:29.033Z,71.91
2023-01-11T07:39:42.948Z,72.56
2023-01-11T07:44:46.935Z,72.35
2023-01-11T07:49:50.036Z,72.22
2023-01-11T07:54:53.065Z,73.01
2023-01-11T07:59:56.053Z,73.31
2023-01-11T08:04:59.160Z,73.21
2023-01-11T08:10:03.595Z,73.30
2023-01-11T08:15:09.342Z,73.80
2023-01-11T08:20:12.894Z,73.45
2023-01-11T08:25:16.337Z,72.73
2023-01-11T08:30:19.409Z,72.26
2023-01-11T08:35:22.518Z,72.90
2023-01-11T08:40:25.928Z,73.17
2023-01-11T08:45:29.244Z,73.23
2023-01-11T08:50:32.263Z,73.59
2023-01-11T08:55:35.276Z,73.63
2023-01-11T09:00:38.270Z,72.87
2023-01-11T09:05:42.104Z,71.60
2023-01-11T09:10:45.309Z,71.89
2023-01-11T09:15:48.534Z,72.77
2023-01-11T09:20:52.143Z,72.80
2023-01-11T09:25:56.022Z,71.91
2023-01-11T09:30:59.004Z,70.40
2023-01-11T09:36:03.212Z,69.24
2023-01-11T09:41:10.408Z,68.44
2023-01-11T09:46:14.379Z,68.02
2023-01-11T09:51:19.851Z,66.69
2023-01-11T09:56:28.672Z,65.96
2023-01-11T10:01:43.357Z,65.27
2023-01-11T10:06:59.443Z,64.73
2023-01-11T10:18:27.726Z,65.22
2023-01-11T10:23:50.561Z,64.51
2023-01-11T10:29:41.498Z,64.22
2023-01-11T10:35:01.082Z,64.01
2023-01-11T10:40:28.767Z,64.03
2023-01-11T10:45:35.098Z,64.18
2023-01-11T10:50:59.660Z,64.29
2023-01-11T10:56:05.331Z,64.54
2023-01-11T11:01:54.433Z,64.60
2023-01-11T11:07:14.524Z,64.03
2023-01-11T11:12:37.611Z,63.55
2023-01-11T11:17:46.309Z,63.56
2023-01-11T11:22:51.151Z,64.46
2023-01-11T11:28:00.749Z,64.54
2023-01-11T11:33:15.535Z,63.93
2023-01-11T11:38:24.349Z,63.70
2023-01-11T11:43:28.404Z,64.36
2023-01-11T11:48:34.590Z,64.37
2023-01-11T11:53:46.149Z,63.97
2023-01-11T11:58:50.633Z,63.87
2023-01-11T12:04:14.333Z,63.99
2023-01-11T12:09:31.090Z,64.63
2023-01-11T12:14:35.537Z,64.19
2023-01-11T12:19:42.721Z,63.90
2023-01-11T12:24:47.766Z,63.58
2023-01-11T12:29:56.087Z,63.25
2023-01-11T12:35:28.993Z,63.19
2023-01-11T12:40:49.013Z,63.54
2023-01-11T12:46:17.548Z,63.45
2023-01-11T12:51:58.507Z,63.24
2023-01-11T12:57:07.672Z,63.25
2023-01-11T13:02:16.959Z,63.93
2023-01-11T13:07:38.356Z,63.97
2023-01-11T13:12:53.350Z,63.43
2023-01-11T13:18:08.220Z,63.35
2023-01-11T13:23:23.409Z,64.17
2023-01-11T13:28:31.221Z,63.68
2023-01-11T13:33:38.700Z,63.66
2023-01-11T13:38:58.438Z,63.77
2023-01-11T13:44:23.964Z,63.85
2023-01-11T13:50:19.634Z,63.62
2023-01-11T13:55:35.027Z,63.31
2023-01-11T14:00:44.057Z,64.23
2023-01-11T14:06:13.400Z,63.61
2023-01-11T14:11:19.482Z,63.64
2023-01-11T14:16:43.218Z,64.06
2023-01-11T14:21:55.783Z,64.32
2023-01-11T14:27:07.759Z,64.43
2023-01-11T14:32:35.490Z,64.40
2023-01-11T14:38:17.300Z,64.32
2023-01-11T14:43:41.604Z,64.74
2023-01-11T14:49:03.564Z,64.89
2023-01-11T14:54:09.440Z,64.78
2023-01-11T14:59:37.217Z,65.84
2023-01-11T15:04:52.229Z,66.32
2023-01-11T15:09:57.785Z,66.74
2023-01-11T15:15:07.660Z,65.96
2023-01-11T15:20:14.644Z,66.91
2023-01-11T15:25:23.189Z,67.01
2023-01-11T15:30:32.531Z,66.70
2023-01-11T15:35:36.546Z,66.60
2023-01-11T15:40:43.675Z,66.49
2023-01-11T15:46:12.798Z,67.58
2023-01-11T15:51:53.984Z,67.74
2023-01-11T15:57:18.195Z,67.28
2023-01-11T16:02:42.396Z,67.97
2023-01-11T16:08:15.416Z,67.99
2023-01-11T16:13:45.038Z,68.45
2023-01-11T16:19:18.384Z,68.10
2023-01-11T16:24:26.881Z,68.02
2023-01-11T16:29:35.726Z,68.23
2023-01-11T16:34:44.081Z,68.24
2023-01-11T16:39:51.987Z,69.18
2023-01-11T16:45:13.608Z,68.82
2023-01-11T16:50:22.510Z,68.95
2023-01-11T16:55:34.161Z,68.66
2023-01-11T17:00:39.740Z,67.98
2023-01-11T17:05:42.966Z,68.21
2023-01-11T17:10:53.441Z,68.97
2023-01-11T17:16:04.278Z,69.26
2023-01-11T17:21:18.217Z,69.99
2023-01-11T17:26:24.696Z,69.66
2023-01-11T17:31:37.045Z,70.16
2023-01-11T17:36:42.063Z,70.43
2023-01-11T17:42:03.909Z,70.70
2023-01-11T17:47:11.117Z,70.68
2023-01-11T17:52:22.256Z,70.27
2023-01-11T17:57:25.639Z,70.43
2023-01-11T18:02:30.228Z,69.98
2023-01-11T18:07:33.690Z,70.47
2023-01-11T18:12:37.044Z,70.68
2023-01-11T18:17:41.902Z,70.99
2023-01-11T18:22:54.300Z,70.55
2023-01-11T18:28:22.176Z,70.27
2023-01-11T18:33:28.260Z,70.33
2023-01-11T18:38:32.901Z,70.15
2023-01-11T18:43:37.343Z,69.71
2023-01-11T18:48:40.446Z,70.38
2023-01-11T18:53:43.453Z,69.94
2023-01-11T18:58:46.662Z,70.12
2023-01-11T19:03:50.599Z,70.21
2023-01-11T19:08:54.205Z,69.97
2023-01-11T19:13:58.037Z,69.48
2023-01-11T19:19:01.040Z,69.15
2023-01-11T19:24:04.658Z,68.90
2023-01-11T19:29:07.997Z,68.93
2023-01-11T19:34:12.120Z,69.04
2023-01-11T19:39:15.320Z,69.69
2023-01-11T19:44:18.340Z,68.91
2023-01-11T19:49:22.304Z,69.88
2023-01-11T19:54:27.206Z,69.59
2023-01-11T19:59:30.218Z,69.40
2023-01-11T20:04:33.809Z,69.78
2023-01-11T20:09:38.062Z,69.18
2023-01-11T20:14:41.177Z,69.70
2023-01-11T20:19:44.186Z,69.93
2023-01-11T20:24:47.781Z,70.37
2023-01-11T20:29:50.949Z,70.43
2023-01-11T20:34:54.020Z,69.98
2023-01-11T20:39:57.130Z,69.87
2023-01-11T20:45:00.159Z,69.55
2023-01-11T20:50:03.147Z,69.95
2023-01-11T20:55:06.934Z,69.83
2023-01-11T21:05:12.673Z,68.37
2023-01-11T21:10:15.897Z,68.68
2023-01-11T21:15:18.996Z,68.59
2023-01-11T21:20:21.998Z,68.58
2023-01-11T21:25:25.007Z,68.17
2023-01-11T21:30:28.010Z,67.97
2023-01-11T21:35:31.738Z,67.82
2023-01-11T21:40:35.158Z,67.61
2023-01-11T21:45:38.393Z,67.67
2023-01-11T21:50:45.847Z,67.25
2023-01-11T21:55:49.990Z,67.26
2023-01-11T22:00:53.033Z,67.64
2023-01-11T22:06:03.699Z,68.05
2023-01-11T22:11:07.479Z,67.28
2023-01-11T22:16:18.276Z,67.11
2023-01-11T22:21:21.835Z,67.21
2023-01-11T22:26:26.375Z,67.41
2023-01-11T22:31:30.297Z,67.65
2023-01-11T22:36:33.531Z,67.91
2023-01-11T22:41:36.935Z,67.70
2023-01-11T22:46:40.073Z,67.83
2023-01-11T22:51:44.185Z,69.53
2023-01-11T22:56:47.995Z,69.69
2023-01-11T23:01:51.009Z,70.57
2023-01-11T23:06:54.174Z,69.89
2023-01-11T23:12:15.658Z,69.95
2023-01-11T23:17:19.689Z,70.00
2023-01-11T23:22:22.800Z,70.32
2023-01-11T23:27:25.908Z,70.20
2023-01-11T23:32:29.110Z,69.88
2023-01-11T23:37:32.021Z,69.48
2023-01-11T23:42:35.745Z,69.38
2023-01-11T23:47:38.865Z,69.11
2023-01-11T23:52:41.866Z,68.88
2023-01-11T23:58:04.933Z,68.64
